Time;durP1;ratioP1;P1;durP2;ratioP2;P2;SDS_P1;SDS_P2;PMS_P1;PMS_P2;Temp;Humidity;BMP_temperature;BMP_pressure;BME280_temperature;BME280_humidity;BME280_pressure;Samples;Min_cycle;Max_cycle;Signal;HPM_P1;HPM_P2
2024/01/21 00:01:13;;;;;;;10.83;7.20;;;;;;;;;;5060802;28;20193;-80
2024/01/21 00:03:40;;;;;;;10.20;7.17;;;;;;;;;;5064168;28;20662;-79
2024/01/21 00:06:07;;;;;;;8.53;6.27;;;;;;;;;;5062396;28;20724;-79
2024/01/21 00:08:34;;;;;;;9.87;6.53;;;;;;;;;;5067784;28;20669;-81
2024/01/21 00:11:00;;;;;;;8.47;6.07;;;;;;;;;;5071299;28;20251;-77
2024/01/21 00:13:27;;;;;;;10.37;5.87;;;;;;;;;;5062525;28;20193;-81
2024/01/21 00:15:53;;;;;;;8.70;6.60;;;;;;;;;;5061492;28;21300;-80
2024/01/21 00:18:20;;;;;;;9.13;6.30;;;;;;;;;;5066634;28;20220;-80
2024/01/21 00:20:47;;;;;;;9.40;6.10;;;;;;;;;;5067772;28;20251;-79
2024/01/21 00:23:13;;;;;;;9.03;5.87;;;;;;;;;;5054415;28;20295;-77
2024/01/21 00:25:40;;;;;;;8.23;5.80;;;;;;;;;;5052585;28;20228;-79
2024/01/21 00:28:06;;;;;;;8.93;6.23;;;;;;;;;;5059746;28;20319;-80
2024/01/21 00:30:33;;;;;;;9.43;6.10;;;;;;;;;;5060389;28;20221;-81
2024/01/21 00:32:59;;;;;;;8.23;5.43;;;;;;;;;;5059638;28;20218;-81
2024/01/21 00:35:26;;;;;;;8.67;5.80;;;;;;;;;;5058404;28;20201;-82
2024/01/21 00:37:52;;;;;;;20.60;18.63;;;;;;;;;;5064439;28;20246;-81
2024/01/21 00:40:19;;;;;;;20.97;17.90;;;;;;;;;;5057073;28;20197;-81
2024/01/21 00:42:45;;;;;;;14.87;9.87;;;;;;;;;;5064454;28;20709;-82
2024/01/21 00:45:12;;;;;;;11.73;8.63;;;;;;;;;;5058934;28;20221;-81
2024/01/21 00:47:39;;;;;;;11.33;7.70;;;;;;;;;;5049683;28;20316;-80
2024/01/21 00:50:06;;;;;;;9.93;7.23;;;;;;;;;;5058909;28;20250;-81
2024/01/21 00:52:32;;;;;;;13.03;7.73;;;;;;;;;;5052739;28;20833;-82
2024/01/21 00:54:59;;;;;;;13.17;7.40;;;;;;;;;;5056686;28;20198;-82
2024/01/21 00:57:25;;;;;;;8.97;5.70;;;;;;;;;;5059261;28;20243;-80
2024/01/21 00:59:52;;;;;;;24.73;21.77;;;;;;;;;;5055400;28;20197;-82
2024/01/21 01:02:19;;;;;;;13.77;10.67;;;;;;;;;;5047331;28;20213;-82
2024/01/21 01:04:45;;;;;;;12.27;9.17;;;;;;;;;;5056794;28;20671;-81
2024/01/21 01:07:12;;;;;;;17.00;12.00;;;;;;;;;;5058300;28;20204;-81
2024/01/21 01:09:39;;;;;;;14.67;11.87;;;;;;;;;;5048808;28;20209;-81
2024/01/21 01:12:05;;;;;;;13.20;10.50;;;;;;;;;;5051729;28;20759;-79
2024/01/21 01:14:32;;;;;;;14.17;11.00;;;;;;;;;;5043980;28;20194;-81
2024/01/21 01:16:58;;;;;;;12.40;8.53;;;;;;;;;;5064857;28;20262;-81
2024/01/21 01:19:25;;;;;;;11.97;8.17;;;;;;;;;;5039227;28;20221;-81
2024/01/21 01:21:52;;;;;;;11.63;7.37;;;;;;;;;;5058654;28;20202;-81
2024/01/21 01:24:19;;;;;;;11.07;7.63;;;;;;;;;;5063994;28;20193;-82
2024/01/21 01:26:46;;;;;;;13.17;7.30;;;;;;;;;;5058811;28;20193;-82
2024/01/21 01:29:13;;;;;;;9.63;5.97;;;;;;;;;;5050979;28;20200;-79
2024/01/21 01:31:39;;;;;;;8.90;5.83;;;;;;;;;;5058952;28;20298;-79
2024/01/21 01:34:07;;;;;;;7.93;5.10;;;;;;;;;;5052384;28;20240;-79
2024/01/21 01:36:34;;;;;;;8.47;5.30;;;;;;;;;;5051171;28;20196;-79
2024/01/21 01:39:00;;;;;;;9.80;5.50;;;;;;;;;;5063113;28;20254;-79
2024/01/21 01:41:27;;;;;;;7.47;4.53;;;;;;;;;;5060367;28;20193;-78
2024/01/21 01:43:53;;;;;;;8.90;5.00;;;;;;;;;;5051712;28;20190;-80
2024/01/21 01:46:20;;;;;;;14.43;9.43;;;;;;;;;;5048948;28;20604;-80
2024/01/21 01:48:47;;;;;;;10.27;8.03;;;;;;;;;;5041714;28;20240;-80
2024/01/21 01:51:14;;;;;;;11.33;7.23;;;;;;;;;;5034359;28;20238;-79
2024/01/21 01:53:41;;;;;;;9.83;6.87;;;;;;;;;;5033378;28;20209;-81
2024/01/21 01:56:08;;;;;;;12.57;9.30;;;;;;;;;;5055574;28;20247;-79
2024/01/21 01:58:35;;;;;;;14.53;9.23;;;;;;;;;;5055859;28;20210;-80
2024/01/21 02:01:01;;;;;;;11.97;8.63;;;;;;;;;;5050330;28;20236;-80
2024/01/21 02:03:29;;;;;;;10.67;7.30;;;;;;;;;;5050880;28;20201;-80
2024/01/21 02:05:55;;;;;;;9.37;6.73;;;;;;;;;;5053091;28;20201;-81
2024/01/21 02:08:22;;;;;;;8.63;6.50;;;;;;;;;;5050762;28;20736;-80
2024/01/21 02:10:49;;;;;;;10.23;6.00;;;;;;;;;;5056343;28;20274;-80
2024/01/21 02:13:16;;;;;;;6.83;4.90;;;;;;;;;;5028707;28;20226;-81
2024/01/21 02:15:43;;;;;;;8.10;5.37;;;;;;;;;;5056271;28;20251;-80
2024/01/21 02:18:10;;;;;;;8.80;4.90;;;;;;;;;;5055696;28;20255;-79
2024/01/21 02:20:37;;;;;;;8.17;5.03;;;;;;;;;;5052090;28;20204;-79
2024/01/21 02:23:06;;;;;;;8.43;5.23;;;;;;;;;;5060157;28;20205;-80
2024/01/21 02:25:33;;;;;;;8.53;4.97;;;;;;;;;;5071851;28;20182;-79
2024/01/21 02:28:00;;;;;;;9.40;5.03;;;;;;;;;;5056198;28;20201;-80
2024/01/21 02:30:27;;;;;;;7.70;4.93;;;;;;;;;;5045841;28;20228;-80
2024/01/21 02:32:53;;;;;;;6.93;5.10;;;;;;;;;;5053350;28;20233;-80
2024/01/21 02:35:20;;;;;;;7.60;4.70;;;;;;;;;;5054895;28;20284;-80
2024/01/21 02:37:46;;;;;;;7.47;5.07;;;;;;;;;;5063017;28;20251;-81
2024/01/21 02:40:13;;;;;;;6.97;5.03;;;;;;;;;;5033108;28;20187;-79
2024/01/21 02:42:40;;;;;;;11.40;8.37;;;;;;;;;;5048903;28;20296;-78
2024/01/21 02:45:07;;;;;;;9.27;6.87;;;;;;;;;;5058433;28;20264;-79
2024/01/21 02:47:33;;;;;;;10.77;6.73;;;;;;;;;;5061874;28;20209;-80
2024/01/21 02:50:00;;;;;;;8.63;6.13;;;;;;;;;;5065130;28;20221;-78
2024/01/21 02:52:27;;;;;;;8.33;5.63;;;;;;;;;;5048659;28;20213;-80
2024/01/21 02:54:53;;;;;;;9.40;5.27;;;;;;;;;;5052961;28;20205;-80
2024/01/21 02:57:20;;;;;;;8.67;5.50;;;;;;;;;;5045425;28;20269;-80
2024/01/21 02:59:47;;;;;;;7.57;5.23;;;;;;;;;;5057718;28;20207;-79
2024/01/21 03:02:13;;;;;;;7.43;5.10;;;;;;;;;;5052289;28;20244;-80
2024/01/21 03:04:40;;;;;;;8.77;5.10;;;;;;;;;;5058288;28;20194;-80
2024/01/21 03:07:07;;;;;;;8.40;4.67;;;;;;;;;;5056008;28;20260;-80
2024/01/21 03:09:33;;;;;;;6.97;5.23;;;;;;;;;;5058500;28;20200;-81
2024/01/21 03:12:00;;;;;;;8.23;5.70;;;;;;;;;;5053677;28;20209;-81
2024/01/21 03:14:26;;;;;;;8.80;5.20;;;;;;;;;;5055357;28;20273;-79
2024/01/21 03:16:53;;;;;;;10.10;5.43;;;;;;;;;;5046807;28;20268;-79
2024/01/21 03:19:20;;;;;;;7.87;5.57;;;;;;;;;;5041527;28;20195;-80
2024/01/21 03:21:46;;;;;;;8.17;5.17;;;;;;;;;;5061791;28;20201;-80
2024/01/21 03:24:13;;;;;;;8.70;5.40;;;;;;;;;;5056528;28;20193;-79
2024/01/21 03:26:39;;;;;;;8.30;4.87;;;;;;;;;;5052552;28;20209;-79
2024/01/21 03:29:06;;;;;;;8.77;5.53;;;;;;;;;;5042681;28;20194;-80
2024/01/21 03:31:35;;;;;;;9.50;5.63;;;;;;;;;;5070204;28;20221;-80
2024/01/21 03:34:03;;;;;;;8.47;5.20;;;;;;;;;;5056080;28;20201;-80
2024/01/21 03:36:30;;;;;;;9.17;6.00;;;;;;;;;;5052606;28;20255;-78
2024/01/21 03:38:57;;;;;;;9.07;6.00;;;;;;;;;;5055079;28;20201;-81
2024/01/21 03:41:24;;;;;;;9.87;6.00;;;;;;;;;;5059486;28;20243;-81
2024/01/21 03:43:50;;;;;;;7.83;5.03;;;;;;;;;;5045840;28;20194;-79
2024/01/21 03:46:17;;;;;;;7.87;5.47;;;;;;;;;;5058372;28;20235;-79
2024/01/21 03:48:44;;;;;;;8.27;5.33;;;;;;;;;;5061354;28;20744;-80
2024/01/21 03:51:11;;;;;;;7.67;5.07;;;;;;;;;;5050064;28;20229;-80
2024/01/21 03:53:39;;;;;;;7.13;4.70;;;;;;;;;;5050064;28;20197;-80
2024/01/21 03:56:06;;;;;;;6.67;4.53;;;;;;;;;;5057279;28;20196;-81
2024/01/21 03:58:33;;;;;;;8.00;5.03;;;;;;;;;;5048921;28;20185;-80
2024/01/21 04:01:04;;;;;;;9.70;6.10;;;;;;;;;;5048785;28;20250;-79
2024/01/21 04:03:32;;;;;;;10.23;5.77;;;;;;;;;;5045845;28;20198;-79
2024/01/21 04:05:59;;;;;;;10.03;6.17;;;;;;;;;;5043402;28;20197;-80
2024/01/21 04:08:27;;;;;;;13.80;7.10;;;;;;;;;;5068638;28;20728;-80
2024/01/21 04:10:54;;;;;;;16.73;8.03;;;;;;;;;;5058964;28;20251;-80
2024/01/21 04:13:21;;;;;;;14.57;8.10;;;;;;;;;;5058315;28;20232;-78
2024/01/21 04:15:47;;;;;;;21.17;10.40;;;;;;;;;;5062963;28;20328;-79
2024/01/21 04:18:14;;;;;;;15.30;8.03;;;;;;;;;;5057972;28;20647;-80
2024/01/21 04:20:41;;;;;;;12.43;7.27;;;;;;;;;;5057190;28;20216;-79
2024/01/21 04:23:07;;;;;;;17.20;9.67;;;;;;;;;;5063627;28;20197;-79
2024/01/21 04:25:34;;;;;;;16.10;8.57;;;;;;;;;;5052803;28;20292;-80
2024/01/21 04:28:01;;;;;;;33.50;14.30;;;;;;;;;;5044826;28;20201;-79
2024/01/21 04:30:28;;;;;;;12.20;6.13;;;;;;;;;;5048062;28;20206;-80
2024/01/21 04:32:55;;;;;;;12.17;5.67;;;;;;;;;;5028925;28;20250;-80
2024/01/21 04:35:21;;;;;;;16.93;8.33;;;;;;;;;;5057257;28;20193;-79
2024/01/21 04:37:49;;;;;;;39.23;16.33;;;;;;;;;;5039409;28;20205;-80
2024/01/21 04:40:15;;;;;;;31.57;13.70;;;;;;;;;;5050037;28;20287;-80
2024/01/21 04:42:42;;;;;;;36.80;16.17;;;;;;;;;;5045660;28;20201;-79
2024/01/21 04:45:09;;;;;;;50.20;19.47;;;;;;;;;;5058107;28;20186;-80
2024/01/21 04:47:37;;;;;;;67.03;23.43;;;;;;;;;;5062035;28;20225;-79
2024/01/21 04:50:04;;;;;;;12.93;7.20;;;;;;;;;;5057917;28;20244;-79
2024/01/21 04:52:31;;;;;;;7.17;4.67;;;;;;;;;;5074846;28;20208;-79
2024/01/21 04:54:57;;;;;;;9.07;4.90;;;;;;;;;;5063380;28;20217;-79
2024/01/21 04:57:24;;;;;;;24.90;10.20;;;;;;;;;;5055342;28;20185;-78
2024/01/21 04:59:50;;;;;;;32.63;13.33;;;;;;;;;;5072581;28;20198;-79
2024/01/21 05:02:18;;;;;;;46.57;18.00;;;;;;;;;;5061380;28;20571;-81
2024/01/21 05:04:44;;;;;;;108.23;36.00;;;;;;;;;;5057965;28;20291;-80
2024/01/21 05:07:11;;;;;;;152.67;53.60;;;;;;;;;;5058952;28;20250;-79
2024/01/21 05:09:38;;;;;;;105.47;41.40;;;;;;;;;;5061405;28;20201;-79
2024/01/21 05:12:05;;;;;;;23.63;12.70;;;;;;;;;;5042672;28;20316;-79
2024/01/21 05:14:31;;;;;;;17.43;10.07;;;;;;;;;;5052926;28;20250;-79
2024/01/21 05:16:58;;;;;;;9.03;5.40;;;;;;;;;;5066004;28;20667;-79
2024/01/21 05:19:24;;;;;;;6.70;4.67;;;;;;;;;;5058301;28;20202;-78
2024/01/21 05:21:51;;;;;;;7.37;4.27;;;;;;;;;;5054979;28;20192;-79
2024/01/21 05:24:18;;;;;;;7.73;4.17;;;;;;;;;;5051381;28;20202;-80
2024/01/21 05:26:46;;;;;;;5.43;3.60;;;;;;;;;;5047490;28;20203;-81
2024/01/21 05:29:12;;;;;;;5.60;3.43;;;;;;;;;;5061207;28;20193;-81
2024/01/21 05:31:39;;;;;;;5.77;3.40;;;;;;;;;;5061763;28;20292;-81
2024/01/21 05:34:06;;;;;;;4.83;3.27;;;;;;;;;;5067308;28;20192;-79
2024/01/21 05:36:32;;;;;;;6.70;3.73;;;;;;;;;;5059750;28;20190;-80
2024/01/21 05:38:59;;;;;;;16.20;8.57;;;;;;;;;;5039581;28;20194;-81
2024/01/21 05:41:28;;;;;;;15.67;9.23;;;;;;;;;;5063791;28;20239;-79
2024/01/21 05:43:56;;;;;;;12.83;6.93;;;;;;;;;;5055231;28;20249;-80
2024/01/21 05:46:22;;;;;;;8.30;4.90;;;;;;;;;;5062580;28;20194;-78
2024/01/21 05:48:49;;;;;;;7.73;4.83;;;;;;;;;;5057713;28;20233;-79
2024/01/21 05:51:16;;;;;;;7.13;4.03;;;;;;;;;;5058828;28;20236;-81
2024/01/21 05:53:44;;;;;;;5.83;3.80;;;;;;;;;;5044166;28;20279;-80
2024/01/21 05:56:10;;;;;;;15.30;8.67;;;;;;;;;;5056010;28;20201;-80
2024/01/21 05:58:37;;;;;;;19.77;10.70;;;;;;;;;;5042005;28;20713;-78
2024/01/21 06:01:04;;;;;;;15.23;9.83;;;;;;;;;;5044490;28;20213;-80
2024/01/21 06:03:30;;;;;;;12.37;8.13;;;;;;;;;;5057429;28;20223;-79
2024/01/21 06:05:57;;;;;;;13.40;8.83;;;;;;;;;;5057469;28;20220;-79
2024/01/21 06:08:24;;;;;;;9.70;8.40;;;;;;;;;;5053116;28;20193;-81
2024/01/21 06:10:50;;;;;;;8.73;7.27;;;;;;;;;;5051560;28;20758;-80
2024/01/21 06:13:17;;;;;;;8.37;6.50;;;;;;;;;;5065755;28;20244;-81
2024/01/21 06:15:44;;;;;;;11.63;5.70;;;;;;;;;;5064029;28;20214;-81
2024/01/21 06:18:11;;;;;;;4.93;3.50;;;;;;;;;;5064147;28;20193;-80
2024/01/21 06:20:37;;;;;;;5.33;3.10;;;;;;;;;;5041309;28;20213;-80
2024/01/21 06:23:04;;;;;;;5.57;3.20;;;;;;;;;;5052726;28;20202;-80
2024/01/21 06:25:31;;;;;;;5.60;3.33;;;;;;;;;;5052985;28;20247;-80
2024/01/21 06:27:58;;;;;;;6.53;4.00;;;;;;;;;;5047472;28;20237;-79
2024/01/21 06:30:26;;;;;;;4.83;2.90;;;;;;;;;;5046032;28;20205;-79
2024/01/21 06:32:52;;;;;;;4.43;3.00;;;;;;;;;;5045187;28;20244;-80
2024/01/21 06:35:28;;;;;;;5.80;2.70;;;;;;;;;;5056884;28;20189;-81
2024/01/21 06:37:55;;;;;;;5.17;2.77;;;;;;;;;;5066870;28;20192;-80
2024/01/21 06:40:21;;;;;;;6.23;3.87;;;;;;;;;;5051812;28;20192;-79
2024/01/21 06:42:48;;;;;;;6.83;4.10;;;;;;;;;;5050247;28;20289;-80
2024/01/21 06:45:15;;;;;;;7.93;4.57;;;;;;;;;;5056609;28;20208;-79
2024/01/21 06:47:42;;;;;;;6.20;3.90;;;;;;;;;;5052917;28;20249;-80
2024/01/21 06:50:11;;;;;;;5.33;3.30;;;;;;;;;;5052368;28;20779;-80
2024/01/21 06:52:38;;;;;;;5.50;3.60;;;;;;;;;;5051511;28;20217;-79
2024/01/21 06:55:06;;;;;;;5.47;3.63;;;;;;;;;;5053611;28;20194;-79
2024/01/21 06:57:33;;;;;;;7.50;3.87;;;;;;;;;;5053651;28;20181;-80
2024/01/21 07:00:00;;;;;;;6.63;3.90;;;;;;;;;;5044787;28;20215;-80
2024/01/21 07:02:26;;;;;;;9.17;4.73;;;;;;;;;;5056298;28;20607;-80
2024/01/21 07:04:53;;;;;;;9.27;5.63;;;;;;;;;;5053328;28;20200;-79
2024/01/21 07:07:20;;;;;;;17.67;8.73;;;;;;;;;;5043169;28;20198;-79
2024/01/21 07:09:46;;;;;;;49.03;20.70;;;;;;;;;;5046298;28;20202;-79
2024/01/21 07:12:17;;;;;;;35.47;16.77;;;;;;;;;;5032432;28;20226;-80
2024/01/21 07:14:43;;;;;;;17.20;8.37;;;;;;;;;;5067970;28;20221;-81
2024/01/21 07:17:11;;;;;;;10.37;5.37;;;;;;;;;;5071979;28;20682;-79
2024/01/21 07:19:37;;;;;;;10.53;4.93;;;;;;;;;;5060855;28;20194;-79
2024/01/21 07:22:04;;;;;;;19.50;9.17;;;;;;;;;;5060434;28;20197;-79
2024/01/21 07:24:31;;;;;;;30.27;13.10;;;;;;;;;;5051827;28;20288;-81
2024/01/21 07:26:57;;;;;;;26.83;12.17;;;;;;;;;;5060934;28;20201;-81
2024/01/21 07:29:24;;;;;;;21.87;10.20;;;;;;;;;;5059969;28;20209;-79
2024/01/21 07:31:51;;;;;;;17.37;8.53;;;;;;;;;;5063649;28;20193;-79
2024/01/21 07:34:19;;;;;;;13.00;6.87;;;;;;;;;;5062823;28;20260;-78
2024/01/21 07:36:46;;;;;;;16.13;7.33;;;;;;;;;;5060532;28;20226;-80
2024/01/21 07:39:13;;;;;;;9.27;5.47;;;;;;;;;;5062351;28;20204;-81
2024/01/21 07:41:39;;;;;;;6.37;3.87;;;;;;;;;;5060176;28;20680;-79
2024/01/21 07:44:06;;;;;;;5.70;3.60;;;;;;;;;;5052182;28;20655;-80
2024/01/21 07:46:33;;;;;;;5.07;3.37;;;;;;;;;;5047896;28;20243;-81
2024/01/21 07:48:59;;;;;;;4.87;3.57;;;;;;;;;;5060781;28;20243;-81
2024/01/21 07:51:26;;;;;;;4.37;2.73;;;;;;;;;;5043594;28;20275;-81
2024/01/21 07:53:53;;;;;;;3.93;2.67;;;;;;;;;;5043017;28;20222;-81
2024/01/21 07:56:19;;;;;;;3.43;2.43;;;;;;;;;;5057391;28;20209;-80
2024/01/21 07:58:46;;;;;;;4.37;2.43;;;;;;;;;;5051543;28;20216;-81
2024/01/21 08:01:13;;;;;;;2.60;2.20;;;;;;;;;;5049022;28;20234;-80
2024/01/21 08:03:40;;;;;;;3.17;2.23;;;;;;;;;;5061761;28;20196;-80
2024/01/21 08:06:08;;;;;;;2.97;2.00;;;;;;;;;;5065210;28;20196;-81
2024/01/21 08:08:35;;;;;;;3.97;2.77;;;;;;;;;;5064583;28;20440;-81
2024/01/21 08:11:02;;;;;;;3.47;2.40;;;;;;;;;;5057571;28;20234;-82
2024/01/21 08:13:28;;;;;;;2.77;1.87;;;;;;;;;;5053294;28;20235;-82
2024/01/21 08:15:55;;;;;;;3.60;2.27;;;;;;;;;;5050260;28;20268;-81
2024/01/21 08:18:22;;;;;;;3.87;2.33;;;;;;;;;;5043977;28;20222;-79
2024/01/21 08:20:50;;;;;;;4.33;2.20;;;;;;;;;;5049752;28;20201;-82
2024/01/21 08:23:17;;;;;;;5.57;2.20;;;;;;;;;;5037675;28;20614;-82
2024/01/21 08:25:43;;;;;;;2.80;2.20;;;;;;;;;;5059913;28;20224;-80
2024/01/21 08:28:10;;;;;;;3.30;2.10;;;;;;;;;;5051004;28;20232;-79
2024/01/21 08:30:37;;;;;;;3.47;2.30;;;;;;;;;;5069483;28;20189;-81
2024/01/21 08:33:03;;;;;;;2.97;2.03;;;;;;;;;;5053496;28;20324;-83
2024/01/21 08:35:31;;;;;;;3.93;2.37;;;;;;;;;;5071042;28;20192;-78
2024/01/21 08:37:58;;;;;;;2.87;2.00;;;;;;;;;;5061529;28;20221;-79
2024/01/21 08:40:24;;;;;;;3.47;2.40;;;;;;;;;;5057658;28;20232;-81
2024/01/21 08:42:51;;;;;;;3.00;2.03;;;;;;;;;;5065921;28;20193;-84
2024/01/21 08:45:18;;;;;;;2.87;2.10;;;;;;;;;;5041577;28;20201;-80
2024/01/21 08:47:45;;;;;;;4.53;2.90;;;;;;;;;;5068865;28;20217;-80
2024/01/21 08:50:12;;;;;;;4.17;2.60;;;;;;;;;;5068633;28;20321;-80
2024/01/21 08:52:39;;;;;;;5.43;3.20;;;;;;;;;;5063223;28;20204;-80
2024/01/21 08:55:06;;;;;;;4.77;3.07;;;;;;;;;;5042426;28;20209;-79
2024/01/21 08:57:32;;;;;;;4.97;3.20;;;;;;;;;;5056135;28;20489;-75
2024/01/21 08:59:59;;;;;;;5.07;3.93;;;;;;;;;;5066167;28;20738;-75
2024/01/21 09:02:26;;;;;;;5.23;3.40;;;;;;;;;;5070154;28;20199;-75
2024/01/21 09:04:52;;;;;;;5.57;4.50;;;;;;;;;;5066314;28;20196;-74
2024/01/21 09:07:19;;;;;;;3.70;3.17;;;;;;;;;;5070118;28;20193;-75
2024/01/21 09:09:45;;;;;;;7.40;4.43;;;;;;;;;;5070161;28;20211;-76
2024/01/21 09:12:14;;;;;;;3.50;2.60;;;;;;;;;;5062994;28;20201;-82
2024/01/21 09:14:42;;;;;;;4.77;3.10;;;;;;;;;;5079062;28;20217;-81
2024/01/21 09:17:09;;;;;;;3.63;2.73;;;;;;;;;;5045791;28;20209;-81
2024/01/21 09:19:35;;;;;;;3.70;2.57;;;;;;;;;;5050016;28;20216;-80
2024/01/21 09:22:03;;;;;;;4.03;2.30;;;;;;;;;;5052150;28;20193;-81
2024/01/21 09:24:30;;;;;;;5.40;2.57;;;;;;;;;;5061828;28;20211;-81
2024/01/21 09:26:56;;;;;;;3.80;2.70;;;;;;;;;;5061876;28;20201;-82
2024/01/21 09:29:23;;;;;;;3.20;2.17;;;;;;;;;;5058248;28;20202;-81
2024/01/21 09:31:56;;;;;;;2.83;2.30;;;;;;;;;;5041502;28;20221;-82
2024/01/21 09:34:23;;;;;;;3.43;2.50;;;;;;;;;;5032733;28;20220;-80
2024/01/21 09:36:51;;;;;;;5.33;2.60;;;;;;;;;;5028950;28;20190;-79
2024/01/21 09:39:19;;;;;;;4.20;2.87;;;;;;;;;;5031625;28;20247;-80
2024/01/21 09:41:48;;;;;;;5.17;2.90;;;;;;;;;;5020169;28;20217;-80
2024/01/21 09:44:18;;;;;;;4.07;2.80;;;;;;;;;;5041727;28;20200;-82
2024/01/21 09:46:55;;;;;;;3.80;3.17;;;;;;;;;;5033836;28;20217;-81
2024/01/21 09:49:22;;;;;;;6.00;3.43;;;;;;;;;;5020792;28;20224;-83
2024/01/21 09:51:50;;;;;;;4.03;2.53;;;;;;;;;;5016523;28;20284;-78
2024/01/21 09:54:17;;;;;;;3.27;2.60;;;;;;;;;;5003415;28;20222;-81
2024/01/21 09:56:43;;;;;;;5.53;3.00;;;;;;;;;;5046496;28;20200;-81
2024/01/21 09:59:10;;;;;;;4.53;2.93;;;;;;;;;;5034861;28;20200;-83
2024/01/21 10:01:37;;;;;;;3.60;2.70;;;;;;;;;;5039139;28;20194;-80
2024/01/21 10:04:04;;;;;;;4.87;2.80;;;;;;;;;;5028513;28;20802;-80
2024/01/21 10:06:32;;;;;;;3.97;3.30;;;;;;;;;;5034642;28;20225;-80
2024/01/21 10:09:11;;;;;;;5.03;3.30;;;;;;;;;;5033953;28;20282;-84
2024/01/21 10:11:38;;;;;;;4.83;3.70;;;;;;;;;;5048255;28;20268;-83
2024/01/21 10:14:04;;;;;;;5.50;3.53;;;;;;;;;;5023874;28;20232;-81
2024/01/21 10:16:31;;;;;;;5.50;3.97;;;;;;;;;;5049917;28;20201;-80
2024/01/21 10:18:58;;;;;;;6.33;4.00;;;;;;;;;;5054066;28;20236;-81
2024/01/21 10:21:25;;;;;;;6.07;3.80;;;;;;;;;;5050560;28;20608;-80
2024/01/21 10:23:52;;;;;;;4.50;3.53;;;;;;;;;;5031797;28;20197;-83
2024/01/21 10:26:18;;;;;;;5.33;3.37;;;;;;;;;;5036516;28;20217;-81
2024/01/21 10:28:45;;;;;;;5.47;3.50;;;;;;;;;;5031622;28;20201;-81
2024/01/21 10:31:11;;;;;;;4.97;3.67;;;;;;;;;;5033654;28;20228;-79
2024/01/21 10:33:42;;;;;;;3.87;3.30;;;;;;;;;;5051436;28;20221;-80
2024/01/21 10:36:10;;;;;;;5.27;3.20;;;;;;;;;;5031751;28;20231;-80
2024/01/21 10:38:45;;;;;;;4.40;3.30;;;;;;;;;;5028971;28;20205;-81
2024/01/21 10:41:14;;;;;;;5.43;3.23;;;;;;;;;;5051312;28;20255;-81
2024/01/21 10:43:40;;;;;;;3.80;2.53;;;;;;;;;;5035082;28;20236;-81
2024/01/21 10:46:07;;;;;;;3.67;2.93;;;;;;;;;;5021143;28;20232;-80
2024/01/21 10:48:34;;;;;;;3.73;3.00;;;;;;;;;;5025172;28;20229;-81
2024/01/21 10:51:01;;;;;;;6.97;3.50;;;;;;;;;;5044290;28;20232;-79
2024/01/21 10:53:28;;;;;;;4.40;3.30;;;;;;;;;;5058336;28;20213;-82
2024/01/21 10:55:56;;;;;;;4.40;3.40;;;;;;;;;;5076091;28;20231;-81
2024/01/21 10:58:22;;;;;;;4.60;3.57;;;;;;;;;;5038796;28;20255;-79
2024/01/21 11:00:50;;;;;;;5.00;3.70;;;;;;;;;;5044342;28;20782;-80
2024/01/21 11:03:29;;;;;;;5.37;4.00;;;;;;;;;;5046167;28;20196;-82
2024/01/21 11:06:03;;;;;;;6.60;3.67;;;;;;;;;;5014327;28;20292;-80
2024/01/21 11:08:31;;;;;;;4.50;3.50;;;;;;;;;;5054935;28;20267;-79
2024/01/21 11:11:17;;;;;;;3.50;3.20;;;;;;;;;;5057270;28;20216;-80
2024/01/21 11:13:48;;;;;;;6.17;3.80;;;;;;;;;;5049017;28;20291;-81
2024/01/21 11:16:26;;;;;;;5.13;3.30;;;;;;;;;;5038247;28;20198;-82
2024/01/21 11:18:53;;;;;;;4.70;3.33;;;;;;;;;;5039817;28;20228;-81
2024/01/21 11:21:20;;;;;;;4.23;3.07;;;;;;;;;;5041173;28;20220;-81
2024/01/21 11:24:06;;;;;;;3.83;2.73;;;;;;;;;;5033411;28;20212;-82
2024/01/21 11:26:36;;;;;;;4.37;3.40;;;;;;;;;;5052720;28;20736;-82
2024/01/21 11:29:20;;;;;;;4.00;3.37;;;;;;;;;;5054268;28;20260;-83
2024/01/21 11:31:59;;;;;;;4.23;3.20;;;;;;;;;;5053623;28;20189;-81
2024/01/21 11:34:30;;;;;;;5.27;3.40;;;;;;;;;;5036143;28;20217;-82
2024/01/21 11:36:57;;;;;;;3.80;2.57;;;;;;;;;;5051835;28;20196;-81
2024/01/21 11:39:24;;;;;;;3.30;2.83;;;;;;;;;;5018095;28;20755;-80
2024/01/21 11:41:51;;;;;;;4.47;3.43;;;;;;;;;;5030693;28;20201;-81
2024/01/21 11:44:22;;;;;;;3.13;2.73;;;;;;;;;;5055399;28;20190;-81
2024/01/21 11:46:56;;;;;;;4.70;3.17;;;;;;;;;;5029904;28;20808;-82
2024/01/21 11:49:23;;;;;;;3.83;3.03;;;;;;;;;;5051458;28;20217;-83
2024/01/21 11:51:50;;;;;;;4.67;3.00;;;;;;;;;;5029121;28;20230;-82
2024/01/21 11:54:17;;;;;;;3.83;3.20;;;;;;;;;;5051270;28;20217;-80
2024/01/21 11:56:44;;;;;;;3.87;3.27;;;;;;;;;;5030471;28;20204;-83
2024/01/21 11:59:12;;;;;;;4.53;3.47;;;;;;;;;;5029983;28;20296;-83
2024/01/21 12:01:40;;;;;;;3.80;3.10;;;;;;;;;;5051263;28;20201;-81
2024/01/21 12:04:08;;;;;;;4.47;3.80;;;;;;;;;;5035524;28;20276;-82
2024/01/21 12:06:37;;;;;;;4.03;3.53;;;;;;;;;;5031949;28;20216;-81
2024/01/21 12:09:04;;;;;;;4.97;3.60;;;;;;;;;;5018424;28;20844;-82
2024/01/21 12:11:35;;;;;;;5.90;4.43;;;;;;;;;;5018247;28;20213;-80
2024/01/21 12:14:06;;;;;;;5.67;4.07;;;;;;;;;;5041807;28;20233;-83
2024/01/21 12:16:33;;;;;;;6.13;3.90;;;;;;;;;;5051797;28;20189;-82
2024/01/21 12:19:00;;;;;;;5.53;3.87;;;;;;;;;;5036032;28;20251;-80
2024/01/21 12:21:28;;;;;;;5.07;4.10;;;;;;;;;;5049662;28;20193;-82
2024/01/21 12:23:56;;;;;;;5.63;3.83;;;;;;;;;;5032036;28;20236;-82
2024/01/21 12:26:24;;;;;;;8.73;4.80;;;;;;;;;;5037370;28;20703;-81
2024/01/21 12:28:58;;;;;;;5.63;4.33;;;;;;;;;;5042089;28;20233;-83
2024/01/21 12:31:45;;;;;;;5.97;4.60;;;;;;;;;;5048023;28;20291;-81
2024/01/21 12:34:13;;;;;;;5.20;4.37;;;;;;;;;;5039396;28;20248;-83
2024/01/21 12:36:41;;;;;;;5.73;4.37;;;;;;;;;;5034825;28;20248;-83
2024/01/21 12:39:09;;;;;;;6.33;4.40;;;;;;;;;;5038446;28;20226;-84
2024/01/21 12:41:36;;;;;;;5.80;4.80;;;;;;;;;;5054426;28;20267;-83
2024/01/21 12:44:03;;;;;;;6.73;4.47;;;;;;;;;;5058913;28;20193;-82
2024/01/21 12:46:29;;;;;;;7.00;5.43;;;;;;;;;;5039812;28;20201;-80
2024/01/21 12:48:56;;;;;;;6.30;5.40;;;;;;;;;;5033623;28;20213;-80
2024/01/21 12:51:23;;;;;;;7.30;6.30;;;;;;;;;;5035438;28;20335;-81
2024/01/21 12:53:51;;;;;;;7.20;6.43;;;;;;;;;;5033781;28;20218;-80
2024/01/21 12:56:18;;;;;;;8.27;6.37;;;;;;;;;;5052066;28;20276;-81
2024/01/21 12:58:47;;;;;;;9.20;7.27;;;;;;;;;;5036496;28;20208;-80
2024/01/21 13:01:13;;;;;;;8.80;7.60;;;;;;;;;;5032994;28;20299;-81
2024/01/21 13:03:40;;;;;;;8.87;7.77;;;;;;;;;;5049432;28;20198;-81
2024/01/21 13:06:07;;;;;;;9.97;8.10;;;;;;;;;;5033017;28;20212;-83
2024/01/21 13:08:36;;;;;;;8.47;7.57;;;;;;;;;;5017667;28;20279;-81
2024/01/21 13:11:03;;;;;;;9.23;7.20;;;;;;;;;;5029999;28;20229;-79
2024/01/21 13:13:30;;;;;;;10.40;7.00;;;;;;;;;;5049815;28;20208;-81
2024/01/21 13:15:57;;;;;;;8.67;7.17;;;;;;;;;;5029457;28;20288;-81
2024/01/21 13:18:24;;;;;;;7.90;6.70;;;;;;;;;;5048515;28;20704;-80
2024/01/21 13:20:50;;;;;;;10.53;7.17;;;;;;;;;;5025570;28;20255;-80
2024/01/21 13:23:17;;;;;;;8.03;6.57;;;;;;;;;;5047684;28;20190;-80
2024/01/21 13:25:44;;;;;;;7.87;6.77;;;;;;;;;;5016778;28;20614;-81
2024/01/21 13:28:27;;;;;;;19.20;11.43;;;;;;;;;;5048037;28;20281;-81
2024/01/21 13:30:55;;;;;;;25.03;12.70;;;;;;;;;;5047037;28;20208;-81
2024/01/21 13:33:22;;;;;;;13.97;11.23;;;;;;;;;;5028606;28;20197;-82
2024/01/21 13:35:50;;;;;;;9.80;7.87;;;;;;;;;;5043611;28;20705;-83
2024/01/21 13:38:19;;;;;;;8.97;7.30;;;;;;;;;;5047539;28;20189;-81
2024/01/21 13:40:46;;;;;;;9.43;7.73;;;;;;;;;;5030502;28;20233;-81
2024/01/21 13:43:13;;;;;;;8.50;7.53;;;;;;;;;;5031580;28;20247;-79
2024/01/21 13:45:40;;;;;;;8.20;7.07;;;;;;;;;;5030438;28;20204;-80
2024/01/21 13:48:07;;;;;;;9.83;7.30;;;;;;;;;;5030170;28;20280;-82
2024/01/21 13:50:34;;;;;;;9.90;7.50;;;;;;;;;;5040025;28;20274;-81
2024/01/21 13:53:01;;;;;;;8.77;7.70;;;;;;;;;;5029280;28;20285;-83
2024/01/21 13:55:28;;;;;;;9.30;7.60;;;;;;;;;;5028103;28;20217;-82
2024/01/21 13:57:54;;;;;;;9.87;8.00;;;;;;;;;;5048172;28;20228;-80
2024/01/21 14:00:23;;;;;;;9.37;7.70;;;;;;;;;;5048258;28;20209;-80
2024/01/21 14:02:54;;;;;;;9.07;7.40;;;;;;;;;;5048467;28;20251;-82
2024/01/21 14:05:22;;;;;;;9.73;7.67;;;;;;;;;;5048091;28;20229;-80
2024/01/21 14:07:50;;;;;;;8.30;7.43;;;;;;;;;;5048564;28;20387;-81
2024/01/21 14:10:17;;;;;;;8.33;7.40;;;;;;;;;;5027246;28;20268;-82
2024/01/21 14:12:43;;;;;;;9.63;7.53;;;;;;;;;;5046648;28;20209;-82
2024/01/21 14:15:11;;;;;;;10.57;8.57;;;;;;;;;;5033326;28;20724;-84
2024/01/21 14:17:38;;;;;;;9.70;8.37;;;;;;;;;;5053456;28;20193;-81
2024/01/21 14:20:09;;;;;;;9.07;8.10;;;;;;;;;;5035412;28;20685;-82
2024/01/21 14:22:39;;;;;;;9.40;8.30;;;;;;;;;;5033911;28;20200;-80
2024/01/21 14:25:27;;;;;;;9.50;8.50;;;;;;;;;;5053391;28;20211;-82
2024/01/21 14:27:54;;;;;;;9.27;8.27;;;;;;;;;;5052656;28;20219;-81
2024/01/21 14:30:25;;;;;;;10.63;8.13;;;;;;;;;;5052941;28;20280;-81
2024/01/21 14:32:51;;;;;;;9.97;7.90;;;;;;;;;;5053363;28;20666;-82
2024/01/21 14:35:18;;;;;;;10.40;8.27;;;;;;;;;;5035502;28;20231;-81
2024/01/21 14:37:45;;;;;;;9.53;8.50;;;;;;;;;;5035206;28;20281;-81
2024/01/21 14:40:11;;;;;;;10.33;8.33;;;;;;;;;;5053406;28;20784;-82